Time;durP1;ratioP1;P1;durP2;ratioP2;P2;SDS_P1;SDS_P2;PMS_P1;PMS_P2;Temp;Humidity;BMP_temperature;BMP_pressure;BME280_temperature;BME280_humidity;BME280_pressure;Samples;Min_cycle;Max_cycle;Signal;HPM_P1;HPM_P2
2021/09/05 00:02:24;;;;;;;23.25;9.60;;;436.10;2355.20;;;;;;4881737;29;20035;-86
2021/09/05 00:04:50;;;;;;;19.85;9.80;;;436.10;2355.20;;;;;;4885984;29;20025;-77
2021/09/05 00:07:16;;;;;;;21.58;9.80;;;460.80;2380.80;;;;;;4880637;29;20120;-81
2021/09/05 00:09:42;;;;;;;23.23;10.77;;;460.90;2380.80;;;;;;4888015;29;20099;-86
2021/09/05 00:12:08;;;;;;;17.30;10.02;;;460.90;2380.80;;;;;;4877488;29;20053;-86
2021/09/05 00:14:34;;;;;;;19.13;11.18;;;460.80;2380.80;;;;;;4889025;29;20054;-85
2021/09/05 00:17:00;;;;;;;20.10;11.27;;;460.80;2380.80;;;;;;4889113;29;20050;-82
2021/09/05 00:19:26;;;;;;;26.30;12.98;;;460.90;2380.80;;;;;;4895541;29;20124;-79
2021/09/05 00:21:52;;;;;;;19.63;12.52;;;460.90;2380.80;;;;;;4887214;29;20040;-88
2021/09/05 00:24:18;;;;;;;23.92;12.80;;;460.80;2380.80;;;;;;4878640;29;20060;-80
2021/09/05 00:26:46;;;;;;;18.60;11.93;;;460.80;2380.80;;;;;;4891029;29;20048;-80
2021/09/05 00:29:13;;;;;;;20.98;13.65;;;436.10;2355.20;;;;;;4882139;29;20041;-84
2021/09/05 00:31:39;;;;;;;20.35;12.18;;;460.80;2380.80;;;;;;4888980;29;20463;-83
2021/09/05 00:34:05;;;;;;;24.55;12.23;;;460.80;2380.80;;;;;;4891698;29;20025;-82
2021/09/05 00:36:31;;;;;;;22.08;11.40;;;460.80;2380.80;;;;;;4884502;29;20037;-85
2021/09/05 00:38:56;;;;;;;24.30;11.88;;;460.80;2380.80;;;;;;4903787;29;20037;-86
2021/09/05 00:41:22;;;;;;;17.92;10.32;;;460.80;2380.80;;;;;;4900916;29;20025;-86
2021/09/05 00:43:57;;;;;;;19.67;11.68;;;460.90;2380.80;;;;;;4890297;29;20032;-79
2021/09/05 00:46:23;;;;;;;23.42;11.27;;;461.00;2380.80;;;;;;4897740;29;20491;-86
2021/09/05 00:48:48;;;;;;;20.30;11.20;;;461.00;2380.80;;;;;;4891186;29;20037;-78
2021/09/05 00:51:14;;;;;;;22.30;11.13;;;461.10;2380.80;;;;;;4890362;29;20084;-89
2021/09/05 00:53:40;;;;;;;21.25;12.45;;;461.10;2380.80;;;;;;4889031;29;20021;-84
2021/09/05 00:56:06;;;;;;;20.60;12.18;;;461.10;2380.80;;;;;;4889522;29;20073;-88
2021/09/05 00:58:34;;;;;;;18.83;10.98;;;460.90;2380.80;;;;;;4882860;29;20029;-86
2021/09/05 01:01:00;;;;;;;18.38;11.57;;;460.90;2380.80;;;;;;4888147;29;20128;-86
2021/09/05 01:03:27;;;;;;;22.27;14.35;;;460.90;2380.80;;;;;;4883473;29;20045;-87
2021/09/05 01:05:53;;;;;;;23.40;13.57;;;460.80;2380.80;;;;;;4889062;29;20447;-87
2021/09/05 01:08:19;;;;;;;26.63;12.55;;;460.80;2380.80;;;;;;4907587;29;20611;-86
2021/09/05 01:10:44;;;;;;;21.30;11.57;;;460.80;2380.80;;;;;;4898228;29;20041;-86
2021/09/05 01:13:10;;;;;;;24.38;12.65;;;460.80;2380.80;;;;;;4889834;29;20036;-86
2021/09/05 01:15:36;;;;;;;18.10;11.32;;;460.80;2380.80;;;;;;4885362;29;20035;-87
2021/09/05 01:18:02;;;;;;;17.73;11.18;;;460.80;2380.80;;;;;;4891116;29;20032;-84
2021/09/05 01:20:27;;;;;;;17.35;10.68;;;460.80;2380.80;;;;;;4897824;29;20083;-87
2021/09/05 01:22:53;;;;;;;17.35;11.05;;;436.10;2355.20;;;;;;4905020;29;20068;-87
2021/09/05 01:25:19;;;;;;;20.35;12.27;;;435.90;2355.20;;;;;;4883275;29;20543;-83
2021/09/05 01:27:45;;;;;;;21.90;12.70;;;435.80;2355.20;;;;;;4888091;29;20017;-86
2021/09/05 01:30:11;;;;;;;19.52;12.30;;;435.90;2355.20;;;;;;4880834;29;20033;-87
2021/09/05 01:32:37;;;;;;;27.13;12.50;;;435.90;2355.20;;;;;;4889313;29;20507;-88
2021/09/05 01:35:03;;;;;;;23.02;12.40;;;435.90;2355.20;;;;;;4889682;29;20058;-86
2021/09/05 01:37:30;;;;;;;19.63;12.70;;;435.70;2355.20;;;;;;4907114;29;20021;-85
2021/09/05 01:39:56;;;;;;;18.08;11.70;;;435.80;2355.20;;;;;;4908918;29;20056;-87
2021/09/05 01:42:22;;;;;;;18.42;12.07;;;435.80;2355.20;;;;;;4890945;29;20299;-87
2021/09/05 01:44:47;;;;;;;23.92;12.30;;;435.80;2355.20;;;;;;4889739;29;20052;-87
2021/09/05 01:47:13;;;;;;;19.90;11.77;;;435.90;2355.20;;;;;;4883998;29;20039;-87
2021/09/05 01:49:39;;;;;;;21.52;13.45;;;435.90;2355.20;;;;;;4892451;29;20036;-83
2021/09/05 01:52:05;;;;;;;21.65;12.85;;;435.70;2355.20;;;;;;4887099;29;20109;-79
2021/09/05 01:54:31;;;;;;;18.42;12.35;;;435.70;2355.20;;;;;;4893001;29;20490;-83
2021/09/05 01:56:56;;;;;;;25.30;11.85;;;435.70;2355.20;;;;;;4888273;29;20032;-87
2021/09/05 01:59:22;;;;;;;17.67;11.70;;;435.70;2355.20;;;;;;4883649;29;20105;-86
2021/09/05 02:01:48;;;;;;;24.23;13.00;;;435.70;2355.20;;;;;;4888066;29;20495;-86
2021/09/05 02:04:13;;;;;;;17.05;11.93;;;435.60;2355.20;;;;;;4880178;29;20039;-80
2021/09/05 02:06:39;;;;;;;18.83;11.93;;;435.40;2355.20;;;;;;4889239;29;20033;-88
2021/09/05 02:09:05;;;;;;;19.05;12.52;;;435.40;2355.20;;;;;;4886837;29;20168;-83
2021/09/05 02:11:31;;;;;;;17.60;12.13;;;435.40;2355.20;;;;;;4889847;29;20049;-79
2021/09/05 02:13:56;;;;;;;23.65;13.38;;;435.50;2355.20;;;;;;4886867;29;20036;-83
2021/09/05 02:16:22;;;;;;;23.30;12.48;;;435.30;2355.20;;;;;;4897453;29;20025;-79
2021/09/05 02:18:48;;;;;;;20.75;11.82;;;410.50;2355.20;;;;;;4889469;29;20033;-81
2021/09/05 02:21:14;;;;;;;24.40;13.07;;;435.20;2355.20;;;;;;4890660;29;20434;-84
2021/09/05 02:23:40;;;;;;;18.45;12.07;;;410.40;2355.20;;;;;;4885914;29;20033;-82
2021/09/05 02:26:05;;;;;;;21.42;12.55;;;410.30;2355.20;;;;;;4890935;29;20032;-83
2021/09/05 02:28:31;;;;;;;18.45;12.43;;;410.30;2355.20;;;;;;4884171;29;20091;-84
2021/09/05 02:30:57;;;;;;;19.02;12.00;;;410.50;2355.20;;;;;;4887922;29;20025;-81
2021/09/05 02:33:22;;;;;;;16.70;11.93;;;410.50;2355.20;;;;;;4898553;29;20025;-82
2021/09/05 02:35:48;;;;;;;18.67;11.30;;;435.20;2355.20;;;;;;4888692;29;20028;-83
2021/09/05 02:38:14;;;;;;;22.15;12.45;;;435.30;2355.20;;;;;;4880196;29;20052;-84
2021/09/05 02:40:40;;;;;;;16.75;12.00;;;435.30;2355.20;;;;;;4889974;29;20043;-84
2021/09/05 02:43:06;;;;;;;16.60;11.80;;;435.30;2355.20;;;;;;4889534;29;20028;-83
2021/09/05 02:45:32;;;;;;;23.30;11.77;;;435.40;2355.20;;;;;;4882652;29;20044;-80
2021/09/05 02:47:58;;;;;;;20.45;11.85;;;435.50;2355.20;;;;;;4885938;29;20033;-79
2021/09/05 02:50:24;;;;;;;17.60;11.25;;;435.50;2355.20;;;;;;4881030;29;20039;-84
2021/09/05 02:52:49;;;;;;;21.83;12.40;;;435.50;2355.20;;;;;;4889925;29;20111;-82
2021/09/05 02:55:15;;;;;;;22.20;12.13;;;435.60;2355.20;;;;;;4888866;29;20029;-82
2021/09/05 02:57:41;;;;;;;17.77;11.85;;;435.60;2355.20;;;;;;4882752;29;20450;-84
2021/09/05 03:00:07;;;;;;;17.15;12.40;;;435.60;2355.20;;;;;;4886204;29;20037;-82
2021/09/05 03:02:33;;;;;;;26.48;12.52;;;435.70;2355.20;;;;;;4887298;29;20111;-82
2021/09/05 03:04:59;;;;;;;22.75;12.32;;;435.70;2355.20;;;;;;4885044;29;20120;-82
2021/09/05 03:07:24;;;;;;;22.60;12.35;;;435.60;2355.20;;;;;;4880402;29;20491;-84
2021/09/05 03:09:50;;;;;;;17.15;11.10;;;435.60;2355.20;;;;;;4901798;29;20025;-78
2021/09/05 03:12:16;;;;;;;18.40;11.73;;;435.60;2355.20;;;;;;4907115;29;20431;-80
2021/09/05 03:14:41;;;;;;;16.20;10.98;;;435.50;2355.20;;;;;;4898175;29;20032;-84
2021/09/05 03:17:07;;;;;;;19.23;11.18;;;435.40;2355.20;;;;;;4878259;29;20040;-80
2021/09/05 03:19:33;;;;;;;19.27;10.30;;;435.40;2355.20;;;;;;4885877;29;20052;-83
2021/09/05 03:21:58;;;;;;;15.73;10.43;;;435.40;2355.20;;;;;;4886752;29;20061;-81
2021/09/05 03:24:24;;;;;;;16.20;10.48;;;435.40;2355.20;;;;;;4904560;29;20047;-83
2021/09/05 03:26:50;;;;;;;14.60;8.55;;;435.40;2355.20;;;;;;4885579;29;20025;-83
2021/09/05 03:29:16;;;;;;;17.67;10.75;;;435.50;2355.20;;;;;;4879647;29;20032;-84
2021/09/05 03:31:42;;;;;;;20.38;11.48;;;435.60;2355.20;;;;;;4910017;29;20035;-83
2021/09/05 03:34:07;;;;;;;18.10;11.48;;;435.60;2355.20;;;;;;4888854;29;20555;-84
2021/09/05 03:36:33;;;;;;;16.85;9.77;;;435.50;2355.20;;;;;;4898952;29;20021;-83
2021/09/05 03:38:59;;;;;;;16.63;9.80;;;435.40;2355.20;;;;;;4887036;29;20383;-83
2021/09/05 03:41:24;;;;;;;16.35;9.95;;;435.40;2355.20;;;;;;4882565;29;20036;-81
2021/09/05 03:43:50;;;;;;;14.32;10.88;;;435.40;2355.20;;;;;;4885838;29;20021;-83
2021/09/05 03:46:16;;;;;;;14.35;10.45;;;435.30;2355.20;;;;;;4881130;29;20487;-80
2021/09/05 03:48:42;;;;;;;13.88;9.88;;;435.30;2355.20;;;;;;4887648;29;20107;-83
2021/09/05 03:51:08;;;;;;;16.90;9.77;;;435.30;2355.20;;;;;;4889018;29;20037;-83
2021/09/05 03:53:33;;;;;;;14.93;10.40;;;410.50;2355.20;;;;;;4883312;29;20029;-83
2021/09/05 03:55:59;;;;;;;18.50;10.88;;;435.20;2355.20;;;;;;4886307;29;20021;-80
2021/09/05 03:58:25;;;;;;;14.18;10.20;;;435.30;2355.20;;;;;;4883814;29;20024;-83
2021/09/05 04:00:50;;;;;;;13.77;9.57;;;435.30;2355.20;;;;;;4889334;29;20041;-79
2021/09/05 04:03:16;;;;;;;19.67;10.25;;;435.20;2355.20;;;;;;4890872;29;20021;-80
2021/09/05 04:05:42;;;;;;;15.05;10.30;;;435.20;2355.20;;;;;;4888850;29;20025;-83
2021/09/05 04:10:37;;;;;;;16.52;10.15;;;410.50;2355.20;;;;;;4892834;29;20048;-81
2021/09/05 04:13:04;;;;;;;15.75;9.77;;;410.50;2355.20;;;;;;4891345;29;20181;-82
2021/09/05 04:15:30;;;;;;;19.13;11.30;;;435.20;2355.20;;;;;;4884415;29;20041;-82
2021/09/05 04:17:56;;;;;;;16.02;9.70;;;435.20;2355.20;;;;;;4892142;29;20035;-83
2021/09/05 04:20:23;;;;;;;15.45;10.52;;;435.20;2355.20;;;;;;4882270;29;20124;-80
2021/09/05 04:22:48;;;;;;;16.60;9.77;;;435.30;2355.20;;;;;;4891931;29;20029;-80
2021/09/05 04:25:15;;;;;;;14.35;10.32;;;435.30;2355.20;;;;;;4883196;29;20492;-83
2021/09/05 04:27:41;;;;;;;18.63;10.65;;;435.30;2355.20;;;;;;4888431;29;20096;-84
2021/09/05 04:30:09;;;;;;;17.55;10.43;;;435.30;2355.20;;;;;;4888907;29;20546;-80
2021/09/05 04:32:36;;;;;;;13.52;9.70;;;435.30;2355.20;;;;;;4886688;29;20029;-82
2021/09/05 04:35:02;;;;;;;16.80;10.52;;;435.40;2355.20;;;;;;4890588;29;20107;-84
2021/09/05 04:37:28;;;;;;;15.90;10.82;;;435.50;2355.20;;;;;;4890965;29;20387;-84
2021/09/05 04:39:54;;;;;;;18.25;11.82;;;435.60;2355.20;;;;;;4910497;29;20108;-84
2021/09/05 04:42:20;;;;;;;14.80;10.65;;;435.60;2355.20;;;;;;4904344;29;20142;-85
2021/09/05 04:44:45;;;;;;;18.25;11.02;;;435.60;2355.20;;;;;;4890448;29;20033;-82
2021/09/05 04:47:12;;;;;;;16.67;11.38;;;435.50;2355.20;;;;;;4887215;29;20357;-82
2021/09/05 04:49:38;;;;;;;16.42;10.85;;;435.40;2355.20;;;;;;4887441;29;20040;-83
2021/09/05 04:52:07;;;;;;;15.25;10.00;;;435.50;2355.20;;;;;;4889522;29;20406;-84
2021/09/05 04:54:35;;;;;;;14.98;10.55;;;435.60;2355.20;;;;;;4894037;29;20132;-83
2021/09/05 04:57:02;;;;;;;21.33;10.35;;;435.60;2355.20;;;;;;4891993;29;20021;-84
2021/09/05 04:59:28;;;;;;;15.75;10.52;;;435.70;2355.20;;;;;;4883924;29;20035;-84
2021/09/05 05:01:53;;;;;;;20.15;10.95;;;435.70;2355.20;;;;;;4890370;29;20439;-79
2021/09/05 05:04:19;;;;;;;18.23;10.85;;;435.60;2355.20;;;;;;4888903;29;20071;-79
2021/09/05 05:06:45;;;;;;;17.38;10.40;;;435.70;2355.20;;;;;;4884882;29;20032;-83
2021/09/05 05:09:12;;;;;;;13.55;8.85;;;435.70;2355.20;;;;;;4880026;29;20037;-83
2021/09/05 05:11:39;;;;;;;19.00;9.18;;;435.70;2355.20;;;;;;4894504;29;20079;-83
2021/09/05 05:14:05;;;;;;;14.45;9.13;;;435.70;2355.20;;;;;;4889033;29;20037;-84
2021/09/05 05:16:31;;;;;;;13.55;9.32;;;435.70;2355.20;;;;;;4883729;29;20506;-83
2021/09/05 05:18:57;;;;;;;15.07;9.82;;;435.80;2355.20;;;;;;4887337;29;20614;-83
2021/09/05 05:21:26;;;;;;;14.10;9.98;;;435.80;2355.20;;;;;;4882793;29;20037;-81
2021/09/05 05:23:52;;;;;;;14.30;9.48;;;435.80;2355.20;;;;;;4903692;29;20604;-80
2021/09/05 05:26:18;;;;;;;16.65;9.38;;;435.80;2355.20;;;;;;4880977;29;20120;-79
2021/09/05 05:28:43;;;;;;;18.30;10.02;;;435.90;2355.20;;;;;;4890085;29;20021;-80
2021/09/05 05:31:09;;;;;;;13.70;9.45;;;435.90;2355.20;;;;;;4889752;29;20388;-80
2021/09/05 05:33:35;;;;;;;11.98;9.52;;;435.90;2355.20;;;;;;4883494;29;20115;-78
2021/09/05 05:36:01;;;;;;;12.80;9.35;;;436.10;2355.20;;;;;;4889961;29;20471;-78
2021/09/05 05:38:26;;;;;;;13.77;9.75;;;436.10;2355.20;;;;;;4883298;29;20025;-79
2021/09/05 05:40:52;;;;;;;14.30;9.75;;;436.10;2355.20;;;;;;4888308;29;20084;-78
2021/09/05 05:43:18;;;;;;;12.15;8.75;;;460.80;2380.80;;;;;;4898988;29;20060;-79
2021/09/05 05:45:45;;;;;;;14.77;8.30;;;460.90;2380.80;;;;;;4888145;29;20495;-79
2021/09/05 05:48:11;;;;;;;13.60;8.27;;;461.00;2380.80;;;;;;4881295;29;20025;-79
2021/09/05 05:50:37;;;;;;;13.18;8.88;;;461.10;2380.80;;;;;;4889247;29;20025;-76
2021/09/05 05:53:03;;;;;;;13.90;8.13;;;461.00;2380.80;;;;;;4887685;29;20040;-78
2021/09/05 05:55:29;;;;;;;11.70;7.95;;;461.00;2380.80;;;;;;4882672;29;20081;-78
2021/09/05 05:57:55;;;;;;;12.13;8.20;;;461.10;2380.80;;;;;;4886812;29;20040;-84
2021/09/05 06:00:25;;;;;;;12.10;7.65;;;461.30;2380.80;;;;;;4882557;29;20040;-78
2021/09/05 06:02:51;;;;;;;10.98;7.53;;;461.30;2380.80;;;;;;4891277;29;20444;-83
2021/09/05 06:05:17;;;;;;;13.30;7.30;;;461.40;2380.80;;;;;;4893265;29;20040;-77
2021/09/05 06:07:43;;;;;;;14.10;8.20;;;461.50;2380.80;;;;;;4891297;29;20124;-82
2021/09/05 06:10:09;;;;;;;11.43;6.75;;;461.60;2380.80;;;;;;4890978;29;20037;-79
2021/09/05 06:12:35;;;;;;;13.25;6.97;;;461.70;2380.80;;;;;;4886660;29;20048;-77
2021/09/05 06:15:01;;;;;;;20.40;8.43;;;461.70;2380.80;;;;;;4906316;29;20029;-78
2021/09/05 06:17:27;;;;;;;10.75;7.18;;;486.40;2380.80;;;;;;4890294;29;20032;-80
2021/09/05 06:19:53;;;;;;;10.35;7.43;;;486.50;2380.80;;;;;;4888473;29;20056;-81
2021/09/05 06:22:18;;;;;;;11.75;7.75;;;486.60;2380.80;;;;;;4915217;29;20036;-80
2021/09/05 06:24:44;;;;;;;11.55;7.45;;;486.70;2380.80;;;;;;4917063;29;20024;-85
2021/09/05 06:27:10;;;;;;;12.20;6.47;;;486.70;2380.80;;;;;;4899788;29;20028;-84
2021/09/05 06:29:36;;;;;;;11.07;6.85;;;486.70;2380.80;;;;;;4911221;29;20036;-77
2021/09/05 06:32:02;;;;;;;11.10;7.15;;;486.90;2380.80;;;;;;4906826;29;20024;-82
2021/09/05 06:34:27;;;;;;;8.80;6.47;;;487.00;2380.80;;;;;;4888951;29;20538;-82
2021/09/05 06:36:53;;;;;;;18.20;11.82;;;487.00;2380.80;;;;;;4891016;29;20451;-79
2021/09/05 06:39:19;;;;;;;21.88;14.95;;;487.10;2380.80;;;;;;4904791;29;20033;-78
2021/09/05 06:41:44;;;;;;;12.13;7.25;;;487.10;2380.80;;;;;;4907935;29;20712;-79
2021/09/05 06:44:10;;;;;;;10.13;6.60;;;487.20;2380.80;;;;;;4888527;29;20032;-80
2021/09/05 06:46:36;;;;;;;10.45;5.85;;;487.30;2380.80;;;;;;4905261;29;20087;-79
2021/09/05 06:49:01;;;;;;;10.57;5.78;;;512.10;2380.80;;;;;;4906810;29;20025;-80
2021/09/05 06:51:27;;;;;;;11.90;6.57;;;512.20;2355.20;;;;;;4905712;29;20103;-79
2021/09/05 06:53:53;;;;;;;12.98;6.40;;;512.40;2380.80;;;;;;4890808;29;20372;-79
2021/09/05 06:56:19;;;;;;;11.32;6.88;;;512.60;2355.20;;;;;;4921737;29;20115;-83
2021/09/05 06:58:44;;;;;;;11.85;6.30;;;512.70;2355.20;;;;;;4900677;29;20054;-79
2021/09/05 07:01:10;;;;;;;9.02;5.25;;;512.80;2355.20;;;;;;4907442;29;20083;-79
2021/09/05 07:03:36;;;;;;;8.63;5.78;;;512.90;2329.60;;;;;;4895728;29;20482;-79
2021/09/05 07:06:02;;;;;;;11.00;5.63;;;537.80;2304.00;;;;;;4917209;29;20042;-83
2021/09/05 07:08:28;;;;;;;8.50;5.85;;;538.00;2278.40;;;;;;4916470;29;20032;-78
2021/09/05 07:10:54;;;;;;;8.98;5.43;;;538.10;2278.40;;;;;;4899189;29;20056;-80
2021/09/05 07:13:19;;;;;;;10.82;5.68;;;538.20;2278.40;;;;;;4916465;29;20036;-83
2021/09/05 07:15:45;;;;;;;10.50;5.22;;;538.30;2252.80;;;;;;4899099;29;20790;-77
2021/09/05 07:18:11;;;;;;;10.15;6.20;;;538.40;2252.80;;;;;;4899370;29;20103;-77
2021/09/05 07:20:36;;;;;;;11.75;6.03;;;538.50;2278.40;;;;;;4907401;29;20043;-77
2021/09/05 07:23:03;;;;;;;16.77;10.35;;;538.50;2252.80;;;;;;4934783;29;20474;-77
2021/09/05 07:25:30;;;;;;;10.55;5.40;;;563.20;2278.40;;;;;;4935565;29;20039;-82
2021/09/05 07:27:55;;;;;;;10.32;5.53;;;538.50;2252.80;;;;;;4935188;29;20024;-78
2021/09/05 07:30:22;;;;;;;11.70;8.13;;;563.20;2278.40;;;;;;4915198;29;20032;-87
2021/09/05 07:32:48;;;;;;;11.70;6.75;;;563.40;2227.20;;;;;;4918065;29;20032;-80
2021/09/05 07:35:13;;;;;;;10.88;5.75;;;563.40;2227.20;;;;;;4901526;29;20084;-79
2021/09/05 07:37:44;;;;;;;8.70;5.93;;;563.40;2252.80;;;;;;4913017;29;20032;-83
2021/09/05 07:40:11;;;;;;;8.00;5.38;;;563.50;2227.20;;;;;;4908294;29;20040;-83
2021/09/05 07:42:37;;;;;;;10.52;5.40;;;563.60;2252.80;;;;;;4910944;29;20546;-77
2021/09/05 07:45:03;;;;;;;9.50;5.68;;;563.80;2227.20;;;;;;4916628;29;20036;-79
2021/09/05 07:47:29;;;;;;;11.95;6.40;;;563.80;2176.00;;;;;;4921538;29;20028;-81
2021/09/05 07:49:55;;;;;;;10.32;5.65;;;563.90;2150.40;;;;;;4898975;29;20080;-81
2021/09/05 07:52:21;;;;;;;12.50;5.65;;;564.00;2150.40;;;;;;4916058;29;20431;-78
2021/09/05 07:54:47;;;;;;;8.45;5.55;;;588.80;2124.80;;;;;;4915869;29;20056;-78
2021/09/05 07:57:12;;;;;;;13.10;5.55;;;588.80;2176.00;;;;;;4899197;29;20080;-82
2021/09/05 07:59:38;;;;;;;9.65;5.63;;;588.90;2150.40;;;;;;4915693;29;20044;-77
2021/09/05 08:02:04;;;;;;;10.90;5.53;;;589.00;2176.00;;;;;;4899060;29;20479;-82
2021/09/05 08:04:29;;;;;;;8.13;5.15;;;589.00;2099.20;;;;;;4915485;29;20020;-83
2021/09/05 08:06:55;;;;;;;9.90;4.82;;;589.10;2124.80;;;;;;4898430;29;20127;-82
2021/09/05 08:09:21;;;;;;;6.43;4.55;;;589.30;2073.60;;;;;;4906198;29;20024;-80
2021/09/05 08:11:47;;;;;;;7.22;4.32;;;589.30;2073.60;;;;;;4915438;29;20048;-78
2021/09/05 08:14:13;;;;;;;13.85;9.77;;;589.40;2099.20;;;;;;4898577;29;20383;-84
2021/09/05 08:16:38;;;;;;;10.23;5.43;;;589.50;2048.00;;;;;;4904291;29;20399;-80
2021/09/05 08:19:05;;;;;;;7.55;4.82;;;589.60;2022.40;;;;;;4915717;29;20028;-79
2021/09/05 08:21:31;;;;;;;13.35;8.68;;;589.60;1945.60;;;;;;4914110;29;20047;-81
2021/09/05 08:23:57;;;;;;;8.05;4.45;;;589.70;1945.60;;;;;;4917463;29;20031;-84
2021/09/05 08:26:23;;;;;;;16.60;11.02;;;589.70;1920.00;;;;;;4934762;29;20036;-80
2021/09/05 08:28:50;;;;;;;9.95;5.85;;;614.40;1894.40;;;;;;4934908;29;20466;-84
2021/09/05 08:31:16;;;;;;;9.95;5.25;;;614.50;1894.40;;;;;;4917785;29;20027;-82
2021/09/05 08:33:42;;;;;;;13.45;8.02;;;614.60;1894.40;;;;;;4934730;29;20023;-85
2021/09/05 08:36:08;;;;;;;8.13;4.65;;;614.60;1868.80;;;;;;4934828;29;20080;-84
2021/09/05 08:38:33;;;;;;;8.05;5.22;;;614.80;1868.80;;;;;;4917638;29;20466;-78
2021/09/05 08:40:59;;;;;;;11.88;5.15;;;614.80;1843.20;;;;;;4910284;29;20064;-85
2021/09/05 08:43:25;;;;;;;8.07;4.35;;;614.80;1843.20;;;;;;4928932;29;20023;-84
2021/09/05 08:45:51;;;;;;;7.13;4.55;;;614.90;1792.00;;;;;;4919491;29;20028;-84
2021/09/05 08:48:18;;;;;;;8.75;4.43;;;614.90;1817.60;;;;;;4921089;29;20110;-81
2021/09/05 08:50:46;;;;;;;9.43;4.70;;;615.00;1817.60;;;;;;4937958;29;20035;-83
2021/09/05 08:53:12;;;;;;;6.50;4.18;;;615.00;1817.60;;;;;;4938152;29;20035;-85
2021/09/05 08:55:38;;;;;;;7.60;4.40;;;615.10;1740.80;;;;;;4938326;29;20024;-84
2021/09/05 08:58:04;;;;;;;13.45;10.27;;;615.20;1740.80;;;;;;4921416;29;20038;-82
2021/09/05 09:00:31;;;;;;;9.70;5.18;;;615.30;1766.40;;;;;;4920761;29;20043;-84
2021/09/05 09:02:58;;;;;;;7.35;5.10;;;615.30;1817.60;;;;;;4938058;29;20020;-85
2021/09/05 09:05:36;;;;;;;11.27;5.65;;;640.10;1792.00;;;;;;4920637;29;20063;-85
2021/09/05 09:08:04;;;;;;;7.43;4.13;;;640.10;1766.40;;;;;;4913064;29;20020;-83
2021/09/05 09:10:31;;;;;;;6.65;4.35;;;640.20;1766.40;;;;;;4920595;29;20534;-80
2021/09/05 09:12:57;;;;;;;6.18;4.70;;;640.30;1715.20;;;;;;4920761;29;20104;-84
2021/09/05 09:15:32;;;;;;;7.70;5.22;;;640.50;1740.80;;;;;;4920561;29;20028;-83
2021/09/05 09:18:06;;;;;;;10.32;4.57;;;640.50;1689.60;;;;;;4936831;29;20475;-85
2021/09/05 09:20:44;;;;;;;11.90;6.13;;;640.60;1715.20;;;;;;4901691;29;20044;-83
2021/09/05 09:23:14;;;;;;;6.90;3.80;;;640.70;1740.80;;;;;;4916253;29;20032;-78
2021/09/05 09:25:52;;;;;;;8.38;4.43;;;640.90;1587.20;;;;;;4920695;29;20107;-86
2021/09/05 09:28:28;;;;;;;11.38;4.40;;;665.60;1612.80;;;;;;4920532;29;20412;-83
2021/09/05 09:30:57;;;;;;;12.23;4.07;;;665.60;1587.20;;;;;;4937639;29;20055;-82
2021/09/05 09:33:26;;;;;;;7.35;4.80;;;665.70;1612.80;;;;;;4937318;29;20024;-82
2021/09/05 09:35:58;;;;;;;15.25;11.68;;;665.70;1587.20;;;;;;4937120;29;20081;-81
2021/09/05 09:38:24;;;;;;;16.48;7.07;;;665.90;1587.20;;;;;;4916199;29;20055;-80
2021/09/05 09:41:02;;;;;;;9.60;4.53;;;666.00;1561.60;;;;;;4907377;29;20059;-78
2021/09/05 09:43:28;;;;;;;8.40;4.57;;;666.00;1561.60;;;;;;4890714;29;20029;-81
2021/09/05 09:46:12;;;;;;;6.78;4.28;;;666.20;1510.40;;;;;;4916135;29;20079;-81
2021/09/05 09:48:46;;;;;;;11.98;4.15;;;666.40;1510.40;;;;;;4899548;29;20017;-78
2021/09/05 09:51:13;;;;;;;9.70;4.95;;;666.50;1510.40;;;;;;4900278;29;20024;-81
2021/09/05 09:53:42;;;;;;;6.60;4.43;;;691.20;1536.00;;;;;;4917690;29;20088;-81
2021/09/05 09:56:10;;;;;;;8.30;4.78;;;691.70;1510.40;;;;;;4900405;29;20184;-81
2021/09/05 09:58:38;;;;;;;5.55;3.67;;;691.40;1433.60;;;;;;4917720;29;20032;-81
2021/09/05 10:01:05;;;;;;;17.20;4.68;;;691.60;1459.20;;;;;;4911197;29;20470;-81
2021/09/05 10:03:31;;;;;;;8.60;5.45;;;691.80;1459.20;;;;;;4908706;29;20394;-80
2021/09/05 10:05:59;;;;;;;9.48;6.25;;;691.90;1408.00;;;;;;4906257;29;20061;-78
2021/09/05 10:08:33;;;;;;;8.88;4.60;;;692.00;1433.60;;;;;;4908364;29;20467;-80
2021/09/05 10:10:59;;;;;;;7.03;4.57;;;716.80;1382.40;;;;;;4889473;29;20055;-79
2021/09/05 10:13:33;;;;;;;6.78;4.38;;;716.90;1408.00;;;;;;4916865;29;20068;-87
2021/09/05 10:16:00;;;;;;;6.97;4.13;;;717.10;1408.00;;;;;;4917339;29;20032;-80
2021/09/05 10:18:27;;;;;;;6.13;4.18;;;717.10;1356.80;;;;;;4916823;29;20035;-80
2021/09/05 10:20:57;;;;;;;7.57;4.00;;;717.30;1331.20;;;;;;4926979;29;20047;-81
2021/09/05 10:23:30;;;;;;;7.28;4.57;;;717.50;1356.80;;;;;;4936338;29;20394;-78
2021/09/05 10:26:08;;;;;;;10.10;3.88;;;717.50;1305.60;;;;;;4910563;29;20028;-82
2021/09/05 10:28:35;;;;;;;9.45;5.00;;;717.30;1305.60;;;;;;4906588;29;20099;-86
2021/09/05 10:31:01;;;;;;;8.15;4.65;;;717.00;1280.00;;;;;;4908177;29;20031;-86
2021/09/05 10:33:38;;;;;;;8.10;4.20;;;717.20;1305.60;;;;;;4911999;29;20016;-86
2021/09/05 10:36:05;;;;;;;5.45;3.97;;;717.50;1228.80;;;;;;4900407;29;20035;-89
2021/09/05 10:38:32;;;;;;;5.32;3.92;;;717.50;1228.80;;;;;;4916965;29;20027;-86
2021/09/05 10:41:01;;;;;;;13.75;10.05;;;717.10;1280.00;;;;;;4920782;29;20483;-84
2021/09/05 10:43:48;;;;;;;5.43;4.18;;;717.40;1280.00;;;;;;4908625;29;20028;-79
2021/09/05 10:46:20;;;;;;;8.13;5.50;;;717.70;1280.00;;;;;;4908203;29;20486;-83
2021/09/05 10:49:07;;;;;;;7.72;5.78;;;742.50;1305.60;;;;;;4886834;29;20020;-83
2021/09/05 10:51:36;;;;;;;14.25;7.20;;;742.60;1305.60;;;;;;4898560;29;20055;-79
2021/09/05 10:54:08;;;;;;;12.68;5.25;;;742.80;1331.20;;;;;;4899655;29;20111;-84
2021/09/05 10:56:43;;;;;;;11.13;7.07;;;717.70;1280.00;;;;;;4899699;29;20020;-84
2021/09/05 10:59:19;;;;;;;14.35;10.40;;;742.40;1280.00;;;;;;4899624;29;20031;-80
2021/09/05 11:01:47;;;;;;;9.80;6.53;;;717.40;1305.60;;;;;;4899962;29;20043;-82
2021/09/05 11:04:14;;;;;;;9.30;5.40;;;717.00;1305.60;;;;;;4917209;29;20020;-84
2021/09/05 11:06:43;;;;;;;11.05;4.38;;;692.10;1305.60;;;;;;4917236;29;20031;-86
2021/09/05 11:09:21;;;;;;;5.90;4.55;;;717.00;1305.60;;;;;;4910462;29;20043;-85
2021/09/05 11:12:26;;;;;;;8.98;4.60;;;717.40;1254.40;;;;;;4917437;29;20518;-77
2021/09/05 11:14:52;;;;;;;8.25;4.88;;;717.70;1280.00;;;;;;4904042;29;20032;-79
2021/09/05 11:17:34;;;;;;;10.45;4.25;;;742.40;1280.00;;;;;;4916515;29;20067;-86
2021/09/05 11:20:04;;;;;;;11.85;4.60;;;742.70;1280.00;;;;;;4902485;29;20090;-86
2021/09/05 11:22:45;;;;;;;10.57;4.88;;;742.90;1228.80;;;;;;4908835;29;20451;-89
2021/09/05 11:25:24;;;;;;;5.95;4.20;;;743.10;1203.20;;;;;;4916743;29;20402;-85
2021/09/05 11:28:02;;;;;;;5.72;4.05;;;743.10;1228.80;;;;;;4918569;29;20028;-89
2021/09/05 11:30:32;;;;;;;6.35;4.13;;;743.30;1203.20;;;;;;4935265;29;20023;-89
2021/09/05 11:33:09;;;;;;;6.35;4.43;;;768.10;1228.80;;;;;;4935694;29;20031;-89
2021/09/05 11:35:45;;;;;;;7.03;4.47;;;768.20;1203.20;;;;;;4935118;29;20016;-85
2021/09/05 11:38:12;;;;;;;;;;;768.30;1177.60;;;;;;4907049;29;20060;-83
2021/09/05 11:40:45;;;;;;;7.45;4.70;;;743.10;1177.60;;;;;;4899970;29;19921;-84
2021/09/05 11:43:11;;;;;;;11.30;4.50;;;743.10;1177.60;;;;;;4903320;29;20020;-85
2021/09/05 11:45:38;;;;;;;7.13;4.30;;;743.30;1177.60;;;;;;4904782;29;20059;-83
2021/09/05 11:48:05;;;;;;;7.30;4.40;;;768.00;1177.60;;;;;;4905089;29;20032;-83
2021/09/05 11:50:36;;;;;;;8.05;4.57;;;768.30;1152.00;;;;;;4890290;29;20514;-82
2021/09/05 11:53:02;;;;;;;6.10;4.20;;;768.30;1177.60;;;;;;4889046;29;20045;-83
2021/09/05 11:55:28;;;;;;;7.30;4.30;;;768.40;1177.60;;;;;;4907216;29;20020;-84
2021/09/05 11:58:03;;;;;;;6.38;3.80;;;768.50;1177.60;;;;;;4888296;29;20111;-84
2021/09/05 12:00:35;;;;;;;5.97;3.67;;;768.20;1152.00;;;;;;4905197;29;20438;-84
2021/09/05 12:03:04;;;;;;;12.18;4.00;;;743.10;1177.60;;;;;;4890786;29;20024;-80
2021/09/05 12:05:30;;;;;;;6.43;3.80;;;742.60;1203.20;;;;;;4913030;29;20039;-85
2021/09/05 12:07:56;;;;;;;7.18;3.88;;;742.80;1228.80;;;;;;4882287;29;20024;-79
2021/09/05 12:10:24;;;;;;;7.15;3.40;;;742.90;1177.60;;;;;;4904916;29;20028;-82
2021/09/05 12:13:08;;;;;;;4.55;3.40;;;743.30;1177.60;;;;;;4907550;29;20060;-83